Flight Track Log - Related Links

Times and Time Zones

All times are in EDT time to prevent confusion due to time zone crossing. See the LNI33 flight status page for this flight to view local times or setup timezone preferences in your user account.

Time Position Orientation Groundspeed Altitude Reporting Facility
EDT Latitude Longitude Course Direction KTS MPH feet Rate Location/Type
Mon 06:48:32 AM -7.8465 113.8819 311° West 484 557 31,800  Level FlightAware ADS-B
Mon 06:49:09 AM -7.7922 113.8201 311° West 483 556 32,500 1,116 Climbing FlightAware ADS-B
Mon 06:49:58 AM -7.7197 113.7370 311° West 482 555 33,400 1,063 Climbing FlightAware ADS-B
Mon 06:50:28 AM -7.6764 113.6863 310° West 481 554 33,900 554 Climbing FlightAware ADS-B
Mon 06:51:03 AM -7.6264 113.6277 311° West 482 555 34,000 86 Climbing FlightAware ADS-B
Mon 06:51:38 AM -7.5742 113.5665 310° West 480 552 34,000  Level FlightAware ADS-B
Mon 06:52:14 AM -7.5231 113.5064 311° West 479 551 34,000  Level FlightAware ADS-B
Mon 06:52:48 AM -7.4772 113.4531 309° West 478 550 34,000  Level FlightAware ADS-B
Mon 06:53:32 AM -7.4442 113.4038 301° West 477 549 34,000  Level FlightAware ADS-B
Mon 06:54:06 AM -7.3952 113.3230 301° West 476 548 34,000  Level FlightAware ADS-B
Mon 06:54:38 AM -7.3452 113.2404 301° West 477 549 34,000  Level FlightAware ADS-B
Mon 06:55:13 AM -7.3052 113.1741 301° West 475 547 34,000  Level FlightAware ADS-B
Mon 06:55:44 AM -7.2701 113.1156 301° West 473 544 34,000  Level FlightAware ADS-B
Mon 06:56:19 AM -7.2336 113.0544 301° West 473 544 34,000  Level FlightAware ADS-B
Mon 06:56:54 AM -7.1920 112.9852 301° West 472 543 34,000  Level FlightAware ADS-B
Mon 06:57:27 AM -7.1538 112.9223 302° West 468 539 34,000  Level FlightAware ADS-B
Mon 06:57:57 AM -7.1346 112.8913 302° West 467 537 34,000  Level FlightAware ADS-B
Mon 06:58:27 AM -7.0851 112.8124 302° West 466 536 34,000  Level FlightAware ADS-B
Mon 06:59:00 AM -7.0472 112.7525 302° West 464 534 34,000  Level FlightAware ADS-B
Mon 06:59:35 AM -7.0069 112.6886 302° West 465 535 34,000  Level FlightAware ADS-B
Mon 07:00:16 AM -6.9801 112.6458 302° West 465 535 34,000  Level FlightAware ADS-B
Mon 07:00:35 AM -6.9801 112.6458 294° West 475 547 34,000  Level FlightAware ADS-B
Mon 07:01:12 AM -6.9801 112.6458 294° West 476 548 34,000  Level FlightAware ADS-B
Mon 07:03:50 AM -7.2110 113.0168 294° West 472 543 34,000  Level FlightAware ADS-B
Mon 07:06:00 AM -7.1673 112.7505 279° West  Level Estimated
Mon 07:07:00 AM -7.1471 112.6276 279° West  Level Estimated
Mon 07:08:00 AM -7.1269 112.5047 279° West  Level Estimated
Mon 07:09:00 AM -7.1066 112.3819 279° West  Level Estimated
Mon 07:10:00 AM -7.0863 112.2590 279° West  Level Estimated
Mon 07:11:00 AM -7.0659 112.1361 279° West  Level Estimated
Mon 07:12:00 AM -7.0456 112.0133 279° West  Level Estimated
Mon 07:13:00 AM -7.0252 111.8904 279° West  Level Estimated
Mon 07:14:00 AM -7.0047 111.7676 280° West  Level Estimated
Mon 07:15:00 AM -6.9843 111.6448 280° West  Level Estimated
Mon 07:16:00 AM -6.9638 111.5220 280° West  Level Estimated
Mon 07:17:00 AM -6.9433 111.3992 280° West  Level Estimated
Mon 07:18:00 AM -6.9227 111.2764 280° West  Level Estimated
Mon 07:19:00 AM -6.9021 111.1537 280° West  Level Estimated
Mon 07:20:00 AM -6.8815 111.0309 280° West  Level Estimated
Mon 07:21:00 AM -6.8608 110.9081 280° West  Level Estimated
Mon 07:22:00 AM -6.8401 110.7854 280° West  Level Estimated
Mon 07:23:00 AM -6.8194 110.6627 280° West  Level Estimated
Mon 07:24:00 AM -6.7987 110.5400 280° West  Level Estimated
Mon 07:25:00 AM -6.7779 110.4173 280° West  Level Estimated
Mon 07:26:00 AM -6.7571 110.2946 280° West  Level Estimated
Mon 07:27:00 AM -6.7362 110.1719 280° West  Level Estimated
Mon 07:28:00 AM -6.7154 110.0492 280° West  Level Estimated
Mon 07:29:00 AM -6.6945 109.9266 280° West  Level Estimated
Mon 07:30:00 AM -6.6735 109.8039 280° West  Level Estimated
Mon 07:31:00 AM -6.6526 109.6813 280° West  Level Estimated
Mon 07:32:00 AM -6.6316 109.5586 280° West  Level Estimated
Mon 07:33:00 AM -6.6105 109.4360 280° West  Level Estimated
Mon 07:34:00 AM -6.5895 109.3134 280° West  Level Estimated
Mon 07:35:00 AM -6.5684 109.1908 280° West  Level Estimated
Mon 07:36:00 AM -6.5473 109.0682 280° West  Level Estimated
Mon 07:37:00 AM -6.5262 108.9456 280° West  Level Estimated
Mon 07:38:00 AM -6.5050 108.8230 280° West  Level Estimated
Mon 07:39:00 AM -6.4838 108.7005 280° West  Level Estimated
Mon 07:40:00 AM -6.4626 108.5779 280° West  Level Estimated
Mon 07:41:00 AM -6.4413 108.4554 280° West  Level Estimated
Mon 07:42:00 AM -6.4200 108.3329 280° West  Level Estimated
Mon 07:43:00 AM -6.3987 108.2104 280° West  Level Estimated
Mon 07:44:00 AM -6.3773 108.0878 280° West  Level Estimated
Mon 07:45:00 AM -6.3560 107.9653 280° West  Level Estimated
Mon 07:46:00 AM -6.3346 107.8428 280° West  Level Estimated
Mon 07:47:00 AM -6.3131 107.7204 280° West  Level Estimated
Mon 07:48:00 AM -6.2917 107.5979 280° West  Level Estimated
Mon 07:49:00 AM -6.2702 107.4754 280° West  Level Estimated
Mon 07:50:00 AM -6.2487 107.3530 280° West  Level Estimated
Mon 07:51:00 AM -6.2271 107.2306 280° West  Level Estimated
Mon 07:52:00 AM -6.2055 107.1081 280° West  Level Estimated
Mon 07:53:00 AM -6.1839 106.9857 280° West  Level Estimated
Mon 07:54:00 AM -6.1623 106.8633 280° West  Level Estimated
Mon 07:55:00 AM -6.1406 106.7409 280° West  Level Estimated
Mon 07:56:00 AM -6.1256 106.6559 280° West  Level Estimated
Mon 07:57:00 AM -6.1256 106.6559 North  Level Estimated
Mon 07:58:00 AM -6.1256 106.6559 North  Level Estimated
Mon 07:59:00 AM -6.1256 106.6559 North  Level Estimated
Mon 08:00:00 AM -6.1256 106.6559 North  Level Estimated
Mon 08:01:00 AM -6.1256 106.6559 North  Level Estimated
Mon 08:02:00 AM -6.1256 106.6559 North  Level Estimated
Mon 08:03:00 AM -6.1256 106.6559 North  Level Estimated
Mon 08:04:00 AM -6.1256 106.6559 North  Level Estimated
Mon 08:05:00 AM -6.1256 106.6559 North  Level Estimated
Mon 08:06:00 AM -6.1256 106.6559 North  Level Estimated
Mon 08:07:00 AM -6.1256 106.6559 North  Level Estimated
Mon 08:08:00 AM -6.1256 106.6559 North  Level Estimated
Mon 08:09:00 AM -6.1256 106.6559 North  Level Estimated
Mon 08:10:00 AM -6.1256 106.6559 North  Level Estimated
Mon 08:11:00 AM -6.1256 106.6559 North  Level Estimated
Mon 08:12:00 AM -6.1256 106.6559 North  Level Estimated
Mon 08:13:00 AM -6.1256 106.6559 North  Level Estimated
Mon 08:14:00 AM -6.1256 106.6559 North  Level Estimated
Mon 08:15:00 AM -6.1256 106.6559 North  Level Estimated
Mon 08:16:00 AM -6.1256 106.6559 North  Level Estimated

Login

Don't have an account? Register now (free) for customized features, flight alerts, and more!